KEAU/EAU METAR and TAF weather

Enter ICAO airport designator
Station Type Date Time Source
KEAU METAR 2019/02/20 23:56 UTC NOAA

KEAU 202356Z 20006KT 5SM BR FEW009 BKN017 OVC025 M03/M04 A2958 RMK AO2 SNE43 SLP030 P0000 60001 T10281039 11022 21039 53002


Station Type Date Time Source
KEAU Decoded METAR 2019/02/20 23:56 UTC NOAA

EAU CLAIRE CHIPPEWA VALLEY, WI, United States (KEAU) 44-52N 091-29W
Feb 20, 2019 - 06:56 PM EST / 2019.02.20 2356 UTC
Wind: from the SSW (200 degrees) at 7 MPH (6 KT):0
Visibility: 5 mile(s):0
Sky conditions: overcast
Weather: mist
Precipitation last hour: A trace
Temperature: 27.0 F (-2.8 C)
Windchill: 19 F (-7 C):1
Dew Point: 25.0 F (-3.9 C)
Relative Humidity: 92%
Pressure (altimeter): 29.58 in. Hg (1001 hPa)
Pressure tendency: 0.01 inches (0.2 hPa) higher than three hours ago
ob: KEAU 202356Z 20006KT 5SM BR FEW009 BKN017 OVC025 M03/M04 A2958 RMK AO2 SNE43 SLP030 P0000 60001 T10281039 11022 21039 53002
cycle: 0

Station Type Date Time Source
KEAU TAF 2019/02/20 18:39 UTC NOAA

TAF KEAU 201737Z 2018/2118 10014G22KT 3/4SM -SN BR OVC015
FM202100 12005KT 2SM -SN BR OVC015
FM210100 22007KT P6SM OVC015
FM211500 25008KT P6SM BKN025


Example: see airport list